MUC | München Airways

 METAR UND TAF INFORMATION

METAR FOR EGCN
ADDS - METARS form results

(1024 UTC 20 June 2019)
Data provider http://aviationweather.gov/metar/data/
 
METAR text: EGCN 201020Z 26019KT 9999 -RA SCT028 BKN034 BKN039 14/08 Q1011
Conditions at: EGCN (DONCASTER SHEFFI, GB) observed 1020 UTC 20 June 2019
Temperature: 14.0°C (57°F)
Dewpoint: 8.0°C (46°F) [RH = 67%]
Pressure (altimeter): 29.85 inches Hg (1011.0 mb)
Winds: from the W (260 degrees) at 22 MPH (19 knots; 9.8 m/s)
Visibility: 6 or more miles (10+ km)
Ceiling: 3400 feet AGL
Clouds: scattered clouds at 2800 feet AGL
broken clouds at 3400 feet AGL
broken clouds at 3900 feet AGL
Weather: -RA  (light rain)

METAR text: EGCN 200950Z 23011KT 9999 FEW029 BKN034 16/09 Q1011
Conditions at: EGCN (DONCASTER SHEFFI, GB) observed 0950 UTC 20 June 2019
Temperature: 16.0°C (61°F)
Dewpoint: 9.0°C (48°F) [RH = 63%]
Pressure (altimeter): 29.85 inches Hg (1011.0 mb)
Winds: from the SW (230 degrees) at 13 MPH (11 knots; 5.7 m/s)
Visibility: 6 or more miles (10+ km)
Ceiling: 3400 feet AGL
Clouds: few clouds at 2900 feet AGL
broken clouds at 3400 feet AGL
Weather: no significant weather observed at this time

Forecast for: AMD
Text: TAF AMD EGCN 201023Z 2010/2106 26015KT 9999 SCT045
Forecast period: 1000 UTC 20 June 2019 to 0600 UTC 21 June 2019
Forecast type: FROM: standard forecast or significant change
Winds: from the W (260 degrees) at 17 MPH (15 knots; 7.7 m/s)
Visibility: 6 or more miles 10+ km)
Ceiling: at least 12,000 feet AGL
Clouds: scattered clouds at 4500 feet AGL
Weather: no significant weather forecast for this period
Text: PROB40
Forecast period: 1000 to 1800 UTC 20 June 2019
Forecast type: TEMPORARY: The following changes expected for less than half the time period
Visibility: 4 miles (7 km)
Ceiling: unknown
Clouds: missing
Weather: SHRA  (rain showers)

 FLUGHAFENKARTE

 RUNWAY INFORMATION
Runway 02 Runway length 9491 ft Runway width 197 ft
Runway elevation 52 ft Runway displaced threshold 714 ft Runway heading 18
Runway 20 Runway length 9491 ft Runway width 197 ft
Runway elevation 26 ft Runway displaced threshold 281 ft Runway heading 198

 AIRPORT FREQUENCIES
Type APP Name APP Frequency 126.225 MHZ
Type ATIS Name ATIS Frequency 134.95 MHZ
Type EMR Name FIRE Frequency 121.6 MHZ
Type RDR Name RDR Frequency 126.225 MHZ
Type TWR Name TWR Frequency 128.775 MHZ
Type ILS Name Frequency 110.95 MHZ

 AIRPORT NEAR NAVIGATION AIDS
Type NDB Name Doncaster Frequency 338 KHZ